sensor_id;sensor_type;location;lat;lon;timestamp;pressure;altitude;pressure_sealevel;temperature;humidity
23223;BME280;11780;13.904;100.620;2023-01-26T00:02:21;101293.41;;;26.97;52.55
23223;BME280;11780;13.904;100.620;2023-01-26T00:04:51;101291.22;;;26.99;52.39
23223;BME280;11780;13.904;100.620;2023-01-26T00:07:21;101293.94;;;26.99;52.39
23223;BME280;11780;13.904;100.620;2023-01-26T00:09:51;101292.84;;;27.00;52.18
23223;BME280;11780;13.904;100.620;2023-01-26T00:12:21;101303.00;;;27.00;52.25
23223;BME280;11780;13.904;100.620;2023-01-26T00:14:51;101303.84;;;27.00;52.17
23223;BME280;11780;13.904;100.620;2023-01-26T00:17:21;101303.84;;;27.00;52.18
23223;BME280;11780;13.904;100.620;2023-01-26T00:19:57;101307.94;;;27.03;52.00
23223;BME280;11780;13.904;100.620;2023-01-26T00:22:27;101301.34;;;26.99;51.86
23223;BME280;11780;13.904;100.620;2023-01-26T00:24:57;101307.94;;;26.98;51.94
23223;BME280;11780;13.904;100.620;2023-01-26T00:27:27;101304.94;;;26.99;52.01
23223;BME280;11780;13.904;100.620;2023-01-26T00:29:59;101310.69;;;26.98;51.93
23223;BME280;11780;13.904;100.620;2023-01-26T00:32:29;101313.44;;;26.98;51.98
23223;BME280;11780;13.904;100.620;2023-01-26T00:34:59;101313.44;;;26.98;51.97
23223;BME280;11780;13.904;100.620;2023-01-26T00:37:29;101322.50;;;26.98;51.92
23223;BME280;11780;13.904;100.620;2023-01-26T00:39:59;101325.25;;;26.98;51.92
23223;BME280;11780;13.904;100.620;2023-01-26T00:42:29;101325.50;;;27.02;52.00
23223;BME280;11780;13.904;100.620;2023-01-26T00:44:59;101328.25;;;26.97;51.85
23223;BME280;11780;13.904;100.620;2023-01-26T00:47:29;101329.09;;;26.97;51.74
23223;BME280;11780;13.904;100.620;2023-01-26T00:49:59;101326.31;;;27.02;51.71
23223;BME280;11780;13.904;100.620;2023-01-26T00:52:29;101339.22;;;27.02;51.85
23223;BME280;11780;13.904;100.620;2023-01-26T00:54:59;101335.13;;;26.99;51.75
23223;BME280;11780;13.904;100.620;2023-01-26T00:57:29;101340.59;;;27.04;51.52
23223;BME280;11780;13.904;100.620;2023-01-26T00:59:58;101348.28;;;27.02;51.64
23223;BME280;11780;13.904;100.620;2023-01-26T01:02:29;101340.88;;;27.03;51.39
23223;BME280;11780;13.904;100.620;2023-01-26T01:04:59;101344.72;;;27.02;51.49
23223;BME280;11780;13.904;100.620;2023-01-26T01:07:29;101340.88;;;27.03;51.44
23223;BME280;11780;13.904;100.620;2023-01-26T01:09:59;101335.09;;;27.04;51.26
23223;BME280;11780;13.904;100.620;2023-01-26T01:12:32;101347.72;;;27.05;51.01
23223;BME280;11780;13.904;100.620;2023-01-26T01:15:02;101347.16;;;27.09;50.90
23223;BME280;11780;13.904;100.620;2023-01-26T01:17:32;101351.84;;;27.08;50.75
23223;BME280;11780;13.904;100.620;2023-01-26T01:20:05;101351.56;;;27.04;50.63
23223;BME280;11780;13.904;100.620;2023-01-26T01:22:36;101350.44;;;27.11;50.53
23223;BME280;11780;13.904;100.620;2023-01-26T01:25:07;101354.28;;;27.15;50.29
23223;BME280;11780;13.904;100.620;2023-01-26T01:27:37;101355.94;;;27.11;50.45
23223;BME280;11780;13.904;100.620;2023-01-26T01:30:08;101355.94;;;27.11;50.34
23223;BME280;11780;13.904;100.620;2023-01-26T01:32:38;101368.56;;;27.12;50.29
23223;BME280;11780;13.904;100.620;2023-01-26T01:35:08;101356.47;;;27.13;50.22
23223;BME280;11780;13.904;100.620;2023-01-26T01:37:38;101371.03;;;27.13;49.98
23223;BME280;11780;13.904;100.620;2023-01-26T01:40:12;101366.38;;;27.14;50.18
23223;BME280;11780;13.904;100.620;2023-01-26T01:42:47;101372.97;;;27.13;50.06
23223;BME280;11780;13.904;100.620;2023-01-26T01:48:00;101377.34;;;27.14;50.17
23223;BME280;11780;13.904;100.620;2023-01-26T01:50:36;101377.59;;;27.17;50.23
23223;BME280;11780;13.904;100.620;2023-01-26T01:53:10;101383.09;;;27.17;50.23
23223;BME280;11780;13.904;100.620;2023-01-26T01:55:42;101377.59;;;27.17;49.96
23223;BME280;11780;13.904;100.620;2023-01-26T01:58:12;101381.69;;;27.20;50.05
23223;BME280;11780;13.904;100.620;2023-01-26T02:00:43;101386.94;;;27.22;49.75
23223;BME280;11780;13.904;100.620;2023-01-26T02:03:13;101383.63;;;27.25;49.62
23223;BME280;11780;13.904;100.620;2023-01-26T02:05:55;101382.78;;;27.24;49.36
23223;BME280;11780;13.904;100.620;2023-01-26T02:08:40;101380.56;;;27.26;49.32
23223;BME280;11780;13.904;100.620;2023-01-26T02:14:19;101392.38;;;27.27;49.29
23223;BME280;11780;13.904;100.620;2023-01-26T02:16:49;101387.41;;;27.29;49.36
23223;BME280;11780;13.904;100.620;2023-01-26T02:22:22;101386.31;;;27.30;49.18
23223;BME280;11780;13.904;100.620;2023-01-26T02:24:59;101398.13;;;27.30;49.15
23223;BME280;11780;13.904;100.620;2023-01-26T02:27:33;101388.50;;;27.33;48.90
23223;BME280;11780;13.904;100.620;2023-01-26T02:30:04;101387.69;;;27.32;49.08
23223;BME280;11780;13.904;100.620;2023-01-26T02:32:35;101392.88;;;27.34;49.01
23223;BME280;11780;13.904;100.620;2023-01-26T02:35:06;101387.41;;;27.34;48.92
23223;BME280;11780;13.904;100.620;2023-01-26T02:37:36;101381.59;;;27.35;48.72
23223;BME280;11780;13.904;100.620;2023-01-26T02:42:46;101381.59;;;27.35;48.75
23223;BME280;11780;13.904;100.620;2023-01-26T02:45:16;101387.09;;;27.35;48.56
23223;BME280;11780;13.904;100.620;2023-01-26T02:47:47;101379.69;;;27.36;48.54
23223;BME280;11780;13.904;100.620;2023-01-26T02:50:18;101388.19;;;27.40;48.71
23223;BME280;11780;13.904;100.620;2023-01-26T02:52:48;101377.50;;;27.38;48.52
23223;BME280;11780;13.904;100.620;2023-01-26T02:55:21;101376.66;;;27.38;48.61
23223;BME280;11780;13.904;100.620;2023-01-26T02:58:00;101382.16;;;27.38;48.64
23223;BME280;11780;13.904;100.620;2023-01-26T03:00:35;101379.41;;;27.38;48.89
23223;BME280;11780;13.904;100.620;2023-01-26T03:03:15;101379.13;;;27.39;48.72
23223;BME280;11780;13.904;100.620;2023-01-26T03:05:46;101386.53;;;27.44;48.82
23223;BME280;11780;13.904;100.620;2023-01-26T03:08:17;101379.38;;;27.43;48.79
23223;BME280;11780;13.904;100.620;2023-01-26T03:10:47;101376.63;;;27.43;48.73
23223;BME280;11780;13.904;100.620;2023-01-26T03:13:17;101371.13;;;27.43;48.93
23223;BME280;11780;13.904;100.620;2023-01-26T03:15:48;101365.34;;;27.44;48.66
23223;BME280;11780;13.904;100.620;2023-01-26T03:18:23;101365.13;;;27.46;48.56
23223;BME280;11780;13.904;100.620;2023-01-26T03:21:22;101370.31;;;27.47;48.48
23223;BME280;11780;13.904;100.620;2023-01-26T03:24:18;101364.53;;;27.49;48.86
23223;BME280;11780;13.904;100.620;2023-01-26T03:27:08;101367.00;;;27.50;48.95
23223;BME280;11780;13.904;100.620;2023-01-26T03:30:02;101360.66;;;27.50;48.80
23223;BME280;11780;13.904;100.620;2023-01-26T03:32:32;101359.56;;;27.51;48.74
23223;BME280;11780;13.904;100.620;2023-01-26T03:35:05;101363.94;;;27.52;48.93
23223;BME280;11780;13.904;100.620;2023-01-26T03:37:36;101354.91;;;27.52;48.79
23223;BME280;11780;13.904;100.620;2023-01-26T03:40:21;101346.66;;;27.52;48.89
23223;BME280;11780;13.904;100.620;2023-01-26T03:43:09;101348.84;;;27.55;48.81
23223;BME280;11780;13.904;100.620;2023-01-26T03:46:04;101329.06;;;27.53;48.49
23223;BME280;11780;13.904;100.620;2023-01-26T03:48:53;101330.97;;;27.52;48.58
23223;BME280;11780;13.904;100.620;2023-01-26T03:51:42;101334.25;;;27.54;47.96
23223;BME280;11780;13.904;100.620;2023-01-26T03:54:31;101325.75;;;27.56;48.11
23223;BME280;11780;13.904;100.620;2023-01-26T03:57:19;101323.00;;;27.56;48.20
23223;BME280;11780;13.904;100.620;2023-01-26T03:59:49;101319.13;;;27.57;48.19
23223;BME280;11780;13.904;100.620;2023-01-26T04:02:22;101317.75;;;27.59;48.40
23223;BME280;11780;13.904;100.620;2023-01-26T04:05:10;101315.00;;;27.59;48.38
23223;BME280;11780;13.904;100.620;2023-01-26T04:08:02;101309.19;;;27.61;48.24
23223;BME280;11780;13.904;100.620;2023-01-26T04:10:55;101302.91;;;27.60;48.37
23223;BME280;11780;13.904;100.620;2023-01-26T04:13:26;101300.16;;;27.60;48.33
23223;BME280;11780;13.904;100.620;2023-01-26T04:16:23;101296.84;;;27.63;48.39
23223;BME280;11780;13.904;100.620;2023-01-26T04:19:11;101291.34;;;27.63;48.65
23223;BME280;11780;13.904;100.620;2023-01-26T04:22:03;101290.19;;;27.64;48.55
23223;BME280;11780;13.904;100.620;2023-01-26T04:24:35;101281.44;;;27.62;48.28
23223;BME280;11780;13.904;100.620;2023-01-26T04:27:05;101277.28;;;27.65;48.49
23223;BME280;11780;13.904;100.620;2023-01-26T04:29:38;101275.34;;;27.65;48.31
23223;BME280;11780;13.904;100.620;2023-01-26T04:32:08;101271.81;;;27.65;48.29
23223;BME280;11780;13.904;100.620;2023-01-26T04:34:38;101264.34;;;27.65;48.21
23223;BME280;11780;13.904;100.620;2023-01-26T04:37:17;101263.25;;;27.66;48.23
23223;BME280;11780;13.904;100.620;2023-01-26T04:39:48;101248.41;;;27.68;48.16
23223;BME280;11780;13.904;100.620;2023-01-26T04:42:20;101241.25;;;27.66;48.12
23223;BME280;11780;13.904;100.620;2023-01-26T04:44:54;101242.63;;;27.69;48.23
23223;BME280;11780;13.904;100.620;2023-01-26T04:47:25;101230.53;;;27.70;48.27
23223;BME280;11780;13.904;100.620;2023-01-26T04:49:56;101227.78;;;27.70;48.30
23223;BME280;11780;13.904;100.620;2023-01-26T04:52:26;101226.41;;;27.68;47.82
23223;BME280;11780;13.904;100.620;2023-01-26T04:54:56;101231.34;;;27.71;47.76
23223;BME280;11780;13.904;100.620;2023-01-26T04:57:27;101217.59;;;27.71;47.93
23223;BME280;11780;13.904;100.620;2023-01-26T04:59:59;101207.72;;;27.70;47.74
23223;BME280;11780;13.904;100.620;2023-01-26T05:02:29;101211.53;;;27.74;47.91
23223;BME280;11780;13.904;100.620;2023-01-26T05:04:59;101202.75;;;27.72;47.35
23223;BME280;11780;13.904;100.620;2023-01-26T05:07:30;101198.59;;;27.74;47.81
23223;BME280;11780;13.904;100.620;2023-01-26T05:10:01;101194.50;;;27.72;47.58
23223;BME280;11780;13.904;100.620;2023-01-26T05:12:41;101188.44;;;27.75;47.41
23223;BME280;11780;13.904;100.620;2023-01-26T05:15:30;101177.44;;;27.75;47.38
23223;BME280;11780;13.904;100.620;2023-01-26T05:18:22;101175.22;;;27.77;47.24
23223;BME280;11780;13.904;100.620;2023-01-26T05:20:58;101157.59;;;27.78;47.31
23223;BME280;11780;13.904;100.620;2023-01-26T05:23:37;101158.09;;;27.80;47.23
23223;BME280;11780;13.904;100.620;2023-01-26T05:26:21;101157.59;;;27.78;47.14
23223;BME280;11780;13.904;100.620;2023-01-26T05:28:55;101149.06;;;27.79;46.77
23223;BME280;11780;13.904;100.620;2023-01-26T05:31:26;101136.13;;;27.80;46.74
23223;BME280;11780;13.904;100.620;2023-01-26T05:33:56;101132.88;;;27.78;46.76
23223;BME280;11780;13.904;100.620;2023-01-26T05:36:26;101127.59;;;27.81;46.36
23223;BME280;11780;13.904;100.620;2023-01-26T05:38:56;101119.34;;;27.81;46.31
23223;BME280;11780;13.904;100.620;2023-01-26T05:41:27;101108.63;;;27.80;46.13
23223;BME280;11780;13.904;100.620;2023-01-26T05:44:19;101099.28;;;27.81;46.25
23223;BME280;11780;13.904;100.620;2023-01-26T05:46:54;101103.97;;;27.80;46.06
23223;BME280;11780;13.904;100.620;2023-01-26T05:49:24;101096.81;;;27.79;45.81
23223;BME280;11780;13.904;100.620;2023-01-26T05:51:54;101082.28;;;27.79;45.62
23223;BME280;11780;13.904;100.620;2023-01-26T05:54:24;101073.41;;;27.82;45.51
23223;BME280;11780;13.904;100.620;2023-01-26T05:56:55;101071.50;;;27.83;45.95
23223;BME280;11780;13.904;100.620;2023-01-26T05:59:26;101073.94;;;27.84;45.17
23223;BME280;11780;13.904;100.620;2023-01-26T06:01:57;101066.53;;;27.85;45.65
23223;BME280;11780;13.904;100.620;2023-01-26T06:04:28;101060.19;;;27.84;45.92
23223;BME280;11780;13.904;100.620;2023-01-26T06:06:59;101059.09;;;27.85;46.01
23223;BME280;11780;13.904;100.620;2023-01-26T06:09:35;101047.81;;;27.87;46.33
23223;BME280;11780;13.904;100.620;2023-01-26T06:12:15;101034.34;;;27.85;45.98
23223;BME280;11780;13.904;100.620;2023-01-26T06:14:54;101032.94;;;27.88;46.29
23223;BME280;11780;13.904;100.620;2023-01-26T06:17:38;101036.50;;;27.88;45.89
23223;BME280;11780;13.904;100.620;2023-01-26T06:20:11;101020.53;;;27.90;46.16
23223;BME280;11780;13.904;100.620;2023-01-26T06:22:52;101028.25;;;27.88;46.46
23223;BME280;11780;13.904;100.620;2023-01-26T06:25:22;101021.34;;;27.91;46.11
23223;BME280;11780;13.904;100.620;2023-01-26T06:27:56;101012.00;;;27.92;46.68
23223;BME280;11780;13.904;100.620;2023-01-26T06:30:28;101007.59;;;27.91;46.26
23223;BME280;11780;13.904;100.620;2023-01-26T06:33:01;101002.41;;;27.89;46.56
23223;BME280;11780;13.904;100.620;2023-01-26T06:35:34;100999.34;;;27.91;46.29
23223;BME280;11780;13.904;100.620;2023-01-26T06:38:09;100992.47;;;27.93;45.47
23223;BME280;11780;13.904;100.620;2023-01-26T06:40:40;100984.22;;;27.93;46.16
23223;BME280;11780;13.904;100.620;2023-01-26T06:43:09;100977.59;;;27.94;46.19
23223;BME280;11780;13.904;100.620;2023-01-26T06:45:39;100969.34;;;27.94;46.05
23223;BME280;11780;13.904;100.620;2023-01-26T06:48:11;100970.16;;;27.95;45.85
23223;BME280;11780;13.904;100.620;2023-01-26T06:50:43;100964.34;;;27.96;45.43
23223;BME280;11780;13.904;100.620;2023-01-26T06:53:36;100958.84;;;27.96;45.74
23223;BME280;11780;13.904;100.620;2023-01-26T06:56:28;100965.19;;;27.97;45.94
23223;BME280;11780;13.904;100.620;2023-01-26T06:59:19;100958.84;;;27.96;45.83
23223;BME280;11780;13.904;100.620;2023-01-26T07:02:16;100955.28;;;27.96;46.10
23223;BME280;11780;13.904;100.620;2023-01-26T07:04:47;100946.22;;;27.95;46.26
23223;BME280;11780;13.904;100.620;2023-01-26T07:07:18;100939.59;;;27.96;46.15
23223;BME280;11780;13.904;100.620;2023-01-26T07:09:48;100944.00;;;27.98;46.03
23223;BME280;11780;13.904;100.620;2023-01-26T07:12:18;100935.47;;;27.99;45.79
23223;BME280;11780;13.904;100.620;2023-01-26T07:14:48;100935.16;;;28.01;46.07
23223;BME280;11780;13.904;100.620;2023-01-26T07:17:20;100925.25;;;28.00;46.13
23223;BME280;11780;13.904;100.620;2023-01-26T07:19:50;100923.34;;;28.00;46.13
23223;BME280;11780;13.904;100.620;2023-01-26T07:22:20;100920.59;;;28.00;45.88
23223;BME280;11780;13.904;100.620;2023-01-26T07:24:50;100921.41;;;28.01;45.65
23223;BME280;11780;13.904;100.620;2023-01-26T07:27:19;100906.53;;;28.02;45.77
23223;BME280;11780;13.904;100.620;2023-01-26T07:29:49;100913.69;;;28.03;45.75
23223;BME280;11780;13.904;100.620;2023-01-26T07:32:19;100908.97;;;28.03;45.87
23223;BME280;11780;13.904;100.620;2023-01-26T07:34:50;100898.81;;;28.04;45.83
23223;BME280;11780;13.904;100.620;2023-01-26T07:37:19;100902.38;;;28.04;46.13
23223;BME280;11780;13.904;100.620;2023-01-26T07:39:49;100902.59;;;28.08;46.02
23223;BME280;11780;13.904;100.620;2023-01-26T07:42:19;100895.47;;;28.07;46.12
23223;BME280;11780;13.904;100.620;2023-01-26T07:45:08;100893.84;;;28.06;46.52
23223;BME280;11780;13.904;100.620;2023-01-26T07:47:38;100886.91;;;28.08;46.21
23223;BME280;11780;13.904;100.620;2023-01-26T07:50:09;100876.22;;;28.07;46.61
23223;BME280;11780;13.904;100.620;2023-01-26T07:52:40;100876.75;;;28.09;46.43
23223;BME280;11780;13.904;100.620;2023-01-26T07:55:13;100875.09;;;28.08;46.48
23223;BME280;11780;13.904;100.620;2023-01-26T07:57:47;100875.09;;;28.08;46.48
23223;BME280;11780;13.904;100.620;2023-01-26T08:00:18;100873.16;;;28.08;46.43
23223;BME280;11780;13.904;100.620;2023-01-26T08:02:51;100872.34;;;28.08;46.46
23223;BME280;11780;13.904;100.620;2023-01-26T08:05:21;100865.75;;;28.09;46.35
23223;BME280;11780;13.904;100.620;2023-01-26T08:07:51;100867.41;;;28.10;46.54
23223;BME280;11780;13.904;100.620;2023-01-26T08:10:21;100869.00;;;28.11;46.70
23223;BME280;11780;13.904;100.620;2023-01-26T08:12:51;100860.75;;;28.11;46.61
23223;BME280;11780;13.904;100.620;2023-01-26T08:15:21;100851.38;;;28.12;46.41
23223;BME280;11780;13.904;100.620;2023-01-26T08:17:52;100853.34;;;28.11;46.62
23223;BME280;11780;13.904;100.620;2023-01-26T08:20:23;100843.66;;;28.14;46.54
23223;BME280;11780;13.904;100.620;2023-01-26T08:22:53;100848.34;;;28.14;45.98
23223;BME280;11780;13.904;100.620;2023-01-26T08:25:26;100852.75;;;28.15;46.40
23223;BME280;11780;13.904;100.620;2023-01-26T08:27:55;100843.66;;;28.14;46.45
23223;BME280;11780;13.904;100.620;2023-01-26T08:30:25;100843.66;;;28.14;46.53
23223;BME280;11780;13.904;100.620;2023-01-26T08:32:56;100845.28;;;28.15;46.71
23223;BME280;11780;13.904;100.620;2023-01-26T08:35:26;100848.34;;;28.14;46.69
23223;BME280;11780;13.904;100.620;2023-01-26T08:37:57;100853.53;;;28.15;46.71
23223;BME280;11780;13.904;100.620;2023-01-26T08:40:26;100852.75;;;28.15;46.80
23223;BME280;11780;13.904;100.620;2023-01-26T08:42:59;100846.13;;;28.16;46.74
23223;BME280;11780;13.904;100.620;2023-01-26T08:45:31;100846.13;;;28.16;47.03
23223;BME280;11780;13.904;100.620;2023-01-26T08:48:01;100841.13;;;28.18;46.64
23223;BME280;11780;13.904;100.620;2023-01-26T08:50:31;100839.19;;;28.18;46.64
23223;BME280;11780;13.904;100.620;2023-01-26T08:53:01;100845.50;;;28.19;46.64
23223;BME280;11780;13.904;100.620;2023-01-26T08:55:31;100842.47;;;28.20;46.54
23223;BME280;11780;13.904;100.620;2023-01-26T08:58:02;100844.09;;;28.21;46.71
23223;BME280;11780;13.904;100.620;2023-01-26T09:00:32;100849.59;;;28.21;46.71
23223;BME280;11780;13.904;100.620;2023-01-26T09:03:04;100846.84;;;28.21;46.74
23223;BME280;11780;13.904;100.620;2023-01-26T09:05:36;100849.28;;;28.23;46.79
23223;BME280;11780;13.904;100.620;2023-01-26T09:08:08;100847.38;;;28.23;46.93
23223;BME280;11780;13.904;100.620;2023-01-26T09:10:39;100852.03;;;28.23;47.03
23223;BME280;11780;13.904;100.620;2023-01-26T09:13:09;100858.06;;;28.25;46.85
23223;BME280;11780;13.904;100.620;2023-01-26T09:15:39;100857.53;;;28.23;47.27
23223;BME280;11780;13.904;100.620;2023-01-26T09:18:10;100864.66;;;28.24;47.05
23223;BME280;11780;13.904;100.620;2023-01-26T09:20:40;100856.41;;;28.24;47.34
23223;BME280;11780;13.904;100.620;2023-01-26T09:23:10;100871.00;;;28.24;47.38
23223;BME280;11780;13.904;100.620;2023-01-26T09:25:41;100865.50;;;28.24;47.39
23223;BME280;11780;13.904;100.620;2023-01-26T09:28:11;100870.69;;;28.26;47.32
23223;BME280;11780;13.904;100.620;2023-01-26T09:30:41;100874.56;;;28.25;47.40
23223;BME280;11780;13.904;100.620;2023-01-26T09:33:11;100872.63;;;28.25;47.30
23223;BME280;11780;13.904;100.620;2023-01-26T09:35:40;100875.38;;;28.25;47.51
23223;BME280;11780;13.904;100.620;2023-01-26T09:38:10;100882.50;;;28.26;47.46
23223;BME280;11780;13.904;100.620;2023-01-26T09:40:46;100888.00;;;28.26;47.42
23223;BME280;11780;13.904;100.620;2023-01-26T09:43:48;100894.00;;;28.29;47.54
23223;BME280;11780;13.904;100.620;2023-01-26T09:46:26;100886.88;;;28.27;47.60
23223;BME280;11780;13.904;100.620;2023-01-26T09:49:05;100886.59;;;28.29;47.59
23223;BME280;11780;13.904;100.620;2023-01-26T09:52:19;100884.66;;;28.30;47.61
23223;BME280;11780;13.904;100.620;2023-01-26T09:57:15;100891.56;;;28.27;47.90
23223;BME280;11780;13.904;100.620;2023-01-26T10:00:23;100886.88;;;28.27;47.82
23223;BME280;11780;13.904;100.620;2023-01-26T10:08:16;100906.97;;;28.28;47.79
23223;BME280;11780;13.904;100.620;2023-01-26T10:10:53;100905.03;;;28.29;48.05
23223;BME280;11780;13.904;100.620;2023-01-26T10:13:26;100906.13;;;28.27;47.93
23223;BME280;11780;13.904;100.620;2023-01-26T10:16:08;100915.75;;;28.30;48.01
23223;BME280;11780;13.904;100.620;2023-01-26T10:19:11;100920.41;;;28.30;47.98
23223;BME280;11780;13.904;100.620;2023-01-26T10:21:45;100915.41;;;28.32;47.93
23223;BME280;11780;13.904;100.620;2023-01-26T10:24:21;100931.94;;;28.32;48.00
23223;BME280;11780;13.904;100.620;2023-01-26T10:26:55;100928.66;;;28.30;47.99
23223;BME280;11780;13.904;100.620;2023-01-26T10:29:26;100929.19;;;28.32;48.10
23223;BME280;11780;13.904;100.620;2023-01-26T10:31:56;100925.63;;;28.31;48.31
23223;BME280;11780;13.904;100.620;2023-01-26T10:34:26;100926.75;;;28.30;48.33
23223;BME280;11780;13.904;100.620;2023-01-26T10:37:32;100933.03;;;28.31;48.28
23223;BME280;11780;13.904;100.620;2023-01-26T10:40:04;100935.19;;;28.34;48.14
23223;BME280;11780;13.904;100.620;2023-01-26T10:42:37;100938.25;;;28.32;48.37
23223;BME280;11780;13.904;100.620;2023-01-26T10:48:15;100949.25;;;28.32;48.42
23223;BME280;11780;13.904;100.620;2023-01-26T10:50:47;100951.50;;;28.30;48.59
23223;BME280;11780;13.904;100.620;2023-01-26T10:53:23;100958.63;;;28.31;48.65
23223;BME280;11780;13.904;100.620;2023-01-26T10:56:11;100962.50;;;28.30;48.52
23223;BME280;11780;13.904;100.620;2023-01-26T10:59:00;100966.06;;;28.31;48.49
23223;BME280;11780;13.904;100.620;2023-01-26T11:01:51;100975.13;;;28.31;48.57
23223;BME280;11780;13.904;100.620;2023-01-26T11:04:21;100973.19;;;28.32;48.72
23223;BME280;11780;13.904;100.620;2023-01-26T11:06:52;100971.28;;;28.32;48.70
23223;BME280;11780;13.904;100.620;2023-01-26T11:09:27;100974.31;;;28.31;48.54
23223;BME280;11780;13.904;100.620;2023-01-26T11:12:00;100982.56;;;28.31;48.72
23223;BME280;11780;13.904;100.620;2023-01-26T11:14:31;100986.94;;;28.32;48.85
23223;BME280;11780;13.904;100.620;2023-01-26T11:17:18;100990.00;;;28.30;48.92
23223;BME280;11780;13.904;100.620;2023-01-26T11:23:12;100999.38;;;28.29;48.99
23223;BME280;11780;13.904;100.620;2023-01-26T11:31:27;100994.69;;;28.30;49.25
23223;BME280;11780;13.904;100.620;2023-01-26T11:46:44;101011.72;;;28.32;49.41
23223;BME280;11780;13.904;100.620;2023-01-26T11:55:03;101011.72;;;28.32;49.55
23223;BME280;11780;13.904;100.620;2023-01-26T12:01:19;101026.31;;;28.32;49.59
23223;BME280;11780;13.904;100.620;2023-01-26T12:03:50;101032.09;;;28.31;49.75
23223;BME280;11780;13.904;100.620;2023-01-26T12:09:05;101039.53;;;28.30;49.80
23223;BME280;11780;13.904;100.620;2023-01-26T12:20:12;101054.09;;;28.31;49.91
23223;BME280;11780;13.904;100.620;2023-01-26T12:22:59;101059.59;;;28.31;49.90
23223;BME280;11780;13.904;100.620;2023-01-26T12:25:37;101068.69;;;28.31;50.02
23223;BME280;11780;13.904;100.620;2023-01-26T12:28:30;101067.84;;;28.31;49.99
23223;BME280;11780;13.904;100.620;2023-01-26T12:31:22;101072.53;;;28.30;50.05
23223;BME280;11780;13.904;100.620;2023-01-26T12:33:55;101082.44;;;28.31;50.03
23223;BME280;11780;13.904;100.620;2023-01-26T12:36:51;101085.19;;;28.31;50.00
23223;BME280;11780;13.904;100.620;2023-01-26T12:39:34;101084.34;;;28.31;50.04
23223;BME280;11780;13.904;100.620;2023-01-26T12:42:19;101089.03;;;28.30;50.11
23223;BME280;11780;13.904;100.620;2023-01-26T12:44:56;101088.22;;;28.30;50.06
23223;BME280;11780;13.904;100.620;2023-01-26T12:47:35;101093.72;;;28.30;50.15
23223;BME280;11780;13.904;100.620;2023-01-26T12:50:31;101091.28;;;28.28;50.28
23223;BME280;11780;13.904;100.620;2023-01-26T12:53:18;101096.47;;;28.30;50.27
23223;BME280;11780;13.904;100.620;2023-01-26T12:55:56;101101.44;;;28.27;50.33
23223;BME280;11780;13.904;100.620;2023-01-26T12:58:43;101103.09;;;28.29;50.37
23223;BME280;11780;13.904;100.620;2023-01-26T13:01:22;101116.56;;;28.30;50.30
23223;BME280;11780;13.904;100.620;2023-01-26T13:04:01;101114.09;;;28.29;50.46
23223;BME280;11780;13.904;100.620;2023-01-26T13:06:33;101115.72;;;28.30;50.40
23223;BME280;11780;13.904;100.620;2023-01-26T13:09:20;101121.22;;;28.30;50.36
23223;BME280;11780;13.904;100.620;2023-01-26T13:11:55;101127.25;;;28.32;50.46
23223;BME280;11780;13.904;100.620;2023-01-26T13:14:33;101128.09;;;28.32;50.42
23223;BME280;11780;13.904;100.620;2023-01-26T13:23:42;101127.50;;;28.54;nan
23223;BME280;11780;13.904;100.620;2023-01-26T13:28:51;101138.94;;;28.42;nan
23223;BME280;11780;13.904;100.620;2023-01-26T13:31:40;101149.63;;;28.44;nan
23223;BME280;11780;13.904;100.620;2023-01-26T13:35:46;101138.03;;;28.47;nan
23223;BME280;11780;13.904;100.620;2023-01-26T13:38:55;101144.13;;;28.44;nan
23223;BME280;11780;13.904;100.620;2023-01-26T13:41:28;101133.75;;;28.41;nan
23223;BME280;11780;13.904;100.620;2023-01-26T13:44:16;101137.31;;;28.41;nan
23223;BME280;11780;13.904;100.620;2023-01-26T13:47:12;101131.59;;;28.38;nan
23223;BME280;11780;13.904;100.620;2023-01-26T13:49:47;101143.13;;;28.40;nan
23223;BME280;11780;13.904;100.620;2023-01-26T13:52:24;101139.84;;;28.38;nan
23223;BME280;11780;13.904;100.620;2023-01-26T13:54:55;101129.41;;;28.35;nan
23223;BME280;11780;13.904;100.620;2023-01-26T13:57:30;101138.78;;;28.34;nan
23223;BME280;11780;13.904;100.620;2023-01-26T14:00:12;101132.97;;;28.35;nan
23223;BME280;11780;13.904;100.620;2023-01-26T14:02:47;101134.09;;;28.34;nan
23223;BME280;11780;13.904;100.620;2023-01-26T14:05:21;101134.69;;;28.31;nan
23223;BME280;11780;13.904;100.620;2023-01-26T14:07:52;101129.47;;;28.30;nan
23223;BME280;11780;13.904;100.620;2023-01-26T14:10:22;101131.66;;;28.33;nan
23223;BME280;11780;13.904;100.620;2023-01-26T14:12:54;101132.22;;;28.30;nan
23223;BME280;11780;13.904;100.620;2023-01-26T14:15:28;101130.59;;;28.29;nan
23223;BME280;11780;13.904;100.620;2023-01-26T14:18:01;101130.59;;;28.29;nan
23223;BME280;11780;13.904;100.620;2023-01-26T14:20:36;101132.00;;;28.26;nan
23223;BME280;11780;13.904;100.620;2023-01-26T14:25:58;101132.81;;;28.26;nan
23223;BME280;11780;13.904;100.620;2023-01-26T14:28:36;101129.78;;;28.28;nan
23223;BME280;11780;13.904;100.620;2023-01-26T14:31:19;101135.81;;;28.30;nan